Time;durP1;ratioP1;P1;durP2;ratioP2;P2;SDS_P1;SDS_P2;PMS_P1;PMS_P2;Temp;Humidity;BMP_temperature;BMP_pressure;BME280_temperature;BME280_humidity;BME280_pressure;Samples;Min_cycle;Max_cycle;Signal;HPM_P1;HPM_P2
2023/08/26 00:00:50;;;;;;;3.85;3.08;;;;;;;;;;5094922;28;20296;-66
2023/08/26 00:03:18;;;;;;;7.00;3.35;;;;;;;;;;5098060;28;20284;-68
2023/08/26 00:05:48;;;;;;;3.53;2.70;;;;;;;;;;5098375;28;20202;-68
2023/08/26 00:08:16;;;;;;;4.22;3.00;;;;;;;;;;5098487;28;20204;-68
2023/08/26 00:10:44;;;;;;;6.15;3.45;;;;;;;;;;5096500;28;20223;-68
2023/08/26 00:13:12;;;;;;;5.85;2.90;;;;;;;;;;5097108;28;20610;-68
2023/08/26 00:15:41;;;;;;;9.23;3.00;;;;;;;;;;5098179;28;20212;-68
2023/08/26 00:18:11;;;;;;;5.05;3.30;;;;;;;;;;5097796;28;20292;-68
2023/08/26 00:20:40;;;;;;;6.18;2.92;;;;;;;;;;5098113;28;20251;-68
2023/08/26 00:23:09;;;;;;;9.20;3.30;;;;;;;;;;5098018;28;20229;-67
2023/08/26 00:25:37;;;;;;;6.07;2.95;;;;;;;;;;5097851;28;20218;-68
2023/08/26 00:28:05;;;;;;;10.13;3.20;;;;;;;;;;5097133;28;20200;-68
2023/08/26 00:30:33;;;;;;;5.18;3.00;;;;;;;;;;5096872;28;20215;-68
2023/08/26 00:33:02;;;;;;;7.60;3.50;;;;;;;;;;5095785;28;20220;-68
2023/08/26 00:35:30;;;;;;;4.53;3.22;;;;;;;;;;5088299;28;20227;-68
2023/08/26 00:38:00;;;;;;;6.47;3.00;;;;;;;;;;5096861;28;20313;-68
2023/08/26 00:40:28;;;;;;;6.15;2.78;;;;;;;;;;5096674;28;20701;-67
2023/08/26 00:42:57;;;;;;;8.95;3.40;;;;;;;;;;5096488;28;20635;-68
2023/08/26 00:45:25;;;;;;;7.28;2.88;;;;;;;;;;5097869;28;20611;-68
2023/08/26 00:47:54;;;;;;;4.25;2.92;;;;;;;;;;5095513;28;20674;-67
2023/08/26 00:50:24;;;;;;;6.18;3.13;;;;;;;;;;5095871;28;20233;-68
2023/08/26 00:52:52;;;;;;;3.47;2.58;;;;;;;;;;5095481;28;20198;-68
2023/08/26 00:55:21;;;;;;;8.45;2.70;;;;;;;;;;5096905;28;20261;-68
2023/08/26 00:57:49;;;;;;;5.30;3.10;;;;;;;;;;5095751;28;20219;-68
2023/08/26 01:00:18;;;;;;;6.63;3.35;;;;;;;;;;5096706;28;20234;-68
2023/08/26 01:02:46;;;;;;;8.80;3.72;;;;;;;;;;5095780;28;20211;-68
2023/08/26 01:05:14;;;;;;;8.30;3.45;;;;;;;;;;5096862;28;20292;-68
2023/08/26 01:07:45;;;;;;;6.88;3.15;;;;;;;;;;5096975;28;20202;-68
2023/08/26 01:10:13;;;;;;;10.55;3.10;;;;;;;;;;5095951;28;20584;-68
2023/08/26 01:12:47;;;;;;;5.90;2.97;;;;;;;;;;5096681;28;20211;-68
2023/08/26 01:15:16;;;;;;;6.50;2.88;;;;;;;;;;5097736;28;20204;-67
2023/08/26 01:17:44;;;;;;;5.93;3.23;;;;;;;;;;5096348;28;20235;-66
2023/08/26 01:20:13;;;;;;;6.53;3.30;;;;;;;;;;5096767;28;20228;-66
2023/08/26 01:22:42;;;;;;;4.87;3.50;;;;;;;;;;5096449;28;20211;-68
2023/08/26 01:25:12;;;;;;;5.07;3.40;;;;;;;;;;5094884;28;20718;-66
2023/08/26 01:27:40;;;;;;;5.17;3.50;;;;;;;;;;5094460;28;20206;-68
2023/08/26 01:30:09;;;;;;;5.93;3.20;;;;;;;;;;5095961;28;20236;-68
2023/08/26 01:32:39;;;;;;;7.50;3.50;;;;;;;;;;5096444;28;20232;-68
2023/08/26 01:35:09;;;;;;;7.20;3.63;;;;;;;;;;5096281;28;20201;-68
2023/08/26 01:37:38;;;;;;;6.07;3.80;;;;;;;;;;5096573;28;20225;-68
2023/08/26 01:40:07;;;;;;;7.17;3.80;;;;;;;;;;5079614;28;20224;-68
2023/08/26 01:42:36;;;;;;;5.17;3.27;;;;;;;;;;5090614;28;20212;-68
2023/08/26 01:45:05;;;;;;;5.27;3.50;;;;;;;;;;5096602;28;20205;-68
2023/08/26 01:47:33;;;;;;;8.57;3.20;;;;;;;;;;5097299;28;20215;-68
2023/08/26 01:50:01;;;;;;;7.70;3.60;;;;;;;;;;5093953;28;20679;-68
2023/08/26 01:52:29;;;;;;;4.40;3.60;;;;;;;;;;5096368;28;20209;-66
2023/08/26 01:54:57;;;;;;;6.23;3.53;;;;;;;;;;5095608;28;20209;-67
2023/08/26 01:57:25;;;;;;;6.60;3.67;;;;;;;;;;5098496;28;20226;-67
2023/08/26 01:59:56;;;;;;;8.33;3.30;;;;;;;;;;5100332;28;20273;-68
2023/08/26 02:02:24;;;;;;;4.77;3.00;;;;;;;;;;5100479;28;20656;-67
2023/08/26 02:04:52;;;;;;;8.40;3.70;;;;;;;;;;5100263;28;20219;-67
2023/08/26 02:07:20;;;;;;;9.47;3.40;;;;;;;;;;5100596;28;20211;-67
2023/08/26 02:09:48;;;;;;;5.47;3.53;;;;;;;;;;5099637;28;20240;-67
2023/08/26 02:12:16;;;;;;;6.23;3.40;;;;;;;;;;5094309;28;20210;-69
2023/08/26 02:14:44;;;;;;;7.37;3.27;;;;;;;;;;5100585;28;20207;-67
2023/08/26 02:17:13;;;;;;;9.50;3.67;;;;;;;;;;5100185;28;20270;-67
2023/08/26 02:19:41;;;;;;;6.30;3.20;;;;;;;;;;5100142;28;20200;-69
2023/08/26 02:22:09;;;;;;;6.67;3.60;;;;;;;;;;5100462;28;20212;-70
2023/08/26 02:24:37;;;;;;;6.47;2.93;;;;;;;;;;5100064;28;20205;-69
2023/08/26 02:27:06;;;;;;;6.30;3.37;;;;;;;;;;5100124;28;20731;-69
2023/08/26 02:29:34;;;;;;;6.17;3.07;;;;;;;;;;5098109;28;20219;-69
2023/08/26 02:32:02;;;;;;;7.13;3.17;;;;;;;;;;5099923;28;20667;-69
2023/08/26 02:34:31;;;;;;;7.17;3.33;;;;;;;;;;5099123;28;20200;-69
2023/08/26 02:36:59;;;;;;;5.30;3.57;;;;;;;;;;5098152;28;20221;-69
2023/08/26 02:39:27;;;;;;;7.20;3.30;;;;;;;;;;5098833;28;20673;-69
2023/08/26 02:41:55;;;;;;;4.50;3.43;;;;;;;;;;5090822;28;20253;-69
2023/08/26 02:44:23;;;;;;;5.57;3.40;;;;;;;;;;5099083;28;20211;-69
2023/08/26 02:46:51;;;;;;;10.80;3.67;;;;;;;;;;5099719;28;20210;-69
2023/08/26 02:49:19;;;;;;;6.87;3.00;;;;;;;;;;5097333;28;20197;-69
2023/08/26 02:51:49;;;;;;;7.03;3.27;;;;;;;;;;5099944;28;20222;-69
2023/08/26 02:54:17;;;;;;;6.13;3.50;;;;;;;;;;5098402;28;20204;-69
2023/08/26 02:56:45;;;;;;;4.27;3.17;;;;;;;;;;5096856;28;20207;-68
2023/08/26 02:59:13;;;;;;;4.73;3.13;;;;;;;;;;5098494;28;20585;-69
2023/08/26 03:01:41;;;;;;;7.13;3.47;;;;;;;;;;5097179;28;20228;-69
2023/08/26 03:04:09;;;;;;;5.33;3.50;;;;;;;;;;5097209;28;20236;-68
2023/08/26 03:06:37;;;;;;;8.70;3.43;;;;;;;;;;5097476;28;20199;-69
2023/08/26 03:09:07;;;;;;;5.80;3.20;;;;;;;;;;5099413;28;20223;-69
2023/08/26 03:11:35;;;;;;;6.37;3.63;;;;;;;;;;5097431;28;20572;-69
2023/08/26 03:14:05;;;;;;;7.33;3.10;;;;;;;;;;5099479;28;20217;-69
2023/08/26 03:16:33;;;;;;;3.53;2.70;;;;;;;;;;5098738;28;20641;-69
2023/08/26 03:19:01;;;;;;;5.73;2.97;;;;;;;;;;5098996;28;20232;-69
2023/08/26 03:21:29;;;;;;;4.97;3.20;;;;;;;;;;5098193;28;20232;-69
2023/08/26 03:23:57;;;;;;;5.10;2.87;;;;;;;;;;5098994;28;20215;-69
2023/08/26 03:26:27;;;;;;;6.67;3.17;;;;;;;;;;5099220;28;20213;-68
2023/08/26 03:28:55;;;;;;;5.50;3.20;;;;;;;;;;5097675;28;20197;-69
2023/08/26 03:31:23;;;;;;;5.47;3.27;;;;;;;;;;5098200;28;20288;-69
2023/08/26 03:33:51;;;;;;;8.47;3.63;;;;;;;;;;5097078;28;20273;-69
2023/08/26 03:36:18;;;;;;;8.33;2.80;;;;;;;;;;5098510;28;20203;-69
2023/08/26 03:38:46;;;;;;;6.20;3.30;;;;;;;;;;5097977;28;20255;-69
2023/08/26 03:41:14;;;;;;;6.40;3.23;;;;;;;;;;5085989;28;20221;-69
2023/08/26 03:43:43;;;;;;;9.93;3.70;;;;;;;;;;5096725;28;20731;-69
2023/08/26 03:46:11;;;;;;;5.70;3.30;;;;;;;;;;5097752;28;20199;-69
2023/08/26 03:48:39;;;;;;;6.93;2.90;;;;;;;;;;5097301;28;20206;-69
2023/08/26 03:51:07;;;;;;;9.40;3.33;;;;;;;;;;5096172;28;21470;-69
2023/08/26 03:53:35;;;;;;;4.87;2.90;;;;;;;;;;5097432;28;20646;-69
2023/08/26 03:56:04;;;;;;;6.40;3.20;;;;;;;;;;5098624;28;20210;-69
2023/08/26 03:58:32;;;;;;;8.07;3.40;;;;;;;;;;5096929;28;20240;-69
2023/08/26 04:01:02;;;;;;;4.03;3.03;;;;;;;;;;5098174;28;20242;-69
2023/08/26 04:03:30;;;;;;;4.63;2.23;;;;;;;;;;5097855;28;20204;-69
2023/08/26 04:05:59;;;;;;;5.60;3.00;;;;;;;;;;5098279;28;20220;-69
2023/08/26 04:08:29;;;;;;;7.30;3.00;;;;;;;;;;5098048;28;20292;-69
2023/08/26 04:10:57;;;;;;;4.77;2.90;;;;;;;;;;5087823;28;20229;-69
2023/08/26 04:13:26;;;;;;;7.33;2.90;;;;;;;;;;5097850;28;20211;-69
2023/08/26 04:15:56;;;;;;;4.07;2.90;;;;;;;;;;5098360;28;20212;-68
2023/08/26 04:18:26;;;;;;;5.07;2.60;;;;;;;;;;5097737;28;20721;-68
2023/08/26 04:20:53;;;;;;;4.27;2.67;;;;;;;;;;5098169;28;20228;-68
2023/08/26 04:23:22;;;;;;;3.23;2.13;;;;;;;;;;5098257;28;20217;-68
2023/08/26 04:25:51;;;;;;;2.90;2.57;;;;;;;;;;5098291;28;20205;-68
2023/08/26 04:28:19;;;;;;;3.73;2.33;;;;;;;;;;5098180;28;20636;-70
2023/08/26 04:30:47;;;;;;;3.50;2.40;;;;;;;;;;5095928;28;20261;-69
2023/08/26 04:33:15;;;;;;;7.27;2.73;;;;;;;;;;5094674;28;20208;-69
2023/08/26 04:35:44;;;;;;;3.97;2.40;;;;;;;;;;5095447;28;20254;-69
2023/08/26 04:38:13;;;;;;;3.07;2.60;;;;;;;;;;5096018;28;20253;-69
2023/08/26 04:40:42;;;;;;;4.80;3.10;;;;;;;;;;5088135;28;20220;-69
2023/08/26 04:43:10;;;;;;;3.00;2.50;;;;;;;;;;5094367;28;20198;-68
2023/08/26 04:45:39;;;;;;;7.33;2.57;;;;;;;;;;5096639;28;20210;-69
2023/08/26 04:48:07;;;;;;;4.87;2.13;;;;;;;;;;5095525;28;20209;-69
2023/08/26 04:50:36;;;;;;;6.83;2.13;;;;;;;;;;5096134;28;20218;-69
2023/08/26 04:53:05;;;;;;;4.47;2.43;;;;;;;;;;5096983;28;20219;-68
2023/08/26 04:55:33;;;;;;;4.37;2.80;;;;;;;;;;5097592;28;20209;-68
2023/08/26 04:58:01;;;;;;;4.50;2.87;;;;;;;;;;5096677;28;20221;-67
2023/08/26 05:00:29;;;;;;;8.93;2.97;;;;;;;;;;5096607;28;20236;-68
2023/08/26 05:02:57;;;;;;;5.40;2.33;;;;;;;;;;5096443;28;20267;-67
2023/08/26 05:05:26;;;;;;;4.03;2.83;;;;;;;;;;5087931;28;20207;-68
2023/08/26 05:07:55;;;;;;;3.33;2.40;;;;;;;;;;5093077;28;20262;-68
2023/08/26 05:10:25;;;;;;;2.63;2.17;;;;;;;;;;5096262;28;20233;-69
2023/08/26 05:12:53;;;;;;;4.27;2.10;;;;;;;;;;5096856;28;20287;-69
2023/08/26 05:15:22;;;;;;;4.93;3.10;;;;;;;;;;5097677;28;20224;-69
2023/08/26 05:17:50;;;;;;;3.63;2.27;;;;;;;;;;5095609;28;20211;-69
2023/08/26 05:20:18;;;;;;;5.80;2.40;;;;;;;;;;5097026;28;20667;-69
2023/08/26 05:22:46;;;;;;;2.67;1.90;;;;;;;;;;5094370;28;20209;-69
2023/08/26 05:25:14;;;;;;;2.47;1.77;;;;;;;;;;5095897;28;20199;-68
2023/08/26 05:27:44;;;;;;;2.80;1.80;;;;;;;;;;5096086;28;20203;-70
2023/08/26 05:30:12;;;;;;;3.13;1.70;;;;;;;;;;5097951;28;20231;-70
2023/08/26 05:32:40;;;;;;;3.57;1.97;;;;;;;;;;5100201;28;20224;-70
2023/08/26 05:35:09;;;;;;;4.30;2.17;;;;;;;;;;5100103;28;20292;-70
2023/08/26 05:37:38;;;;;;;3.83;1.83;;;;;;;;;;5093302;28;20201;-69
2023/08/26 05:40:06;;;;;;;4.37;1.90;;;;;;;;;;5096657;28;20261;-67
2023/08/26 05:42:34;;;;;;;4.07;1.87;;;;;;;;;;5100252;28;20238;-71
2023/08/26 05:45:04;;;;;;;2.93;1.83;;;;;;;;;;5099260;28;20322;-65
2023/08/26 05:47:32;;;;;;;3.93;1.90;;;;;;;;;;5099389;28;20206;-67
2023/08/26 05:50:00;;;;;;;1.97;1.67;;;;;;;;;;5094489;28;20285;-65
2023/08/26 05:52:28;;;;;;;2.90;1.70;;;;;;;;;;5099843;28;20204;-67
2023/08/26 05:54:56;;;;;;;2.30;1.60;;;;;;;;;;5096913;28;20233;-74
2023/08/26 05:57:24;;;;;;;2.67;1.40;;;;;;;;;;5097626;28;20332;-75
2023/08/26 05:59:52;;;;;;;3.57;1.60;;;;;;;;;;5098913;28;20221;-72
2023/08/26 06:02:22;;;;;;;2.00;1.30;;;;;;;;;;5100409;28;20219;-72
2023/08/26 06:04:50;;;;;;;2.47;1.70;;;;;;;;;;5100402;28;20287;-71
2023/08/26 06:07:18;;;;;;;2.60;1.70;;;;;;;;;;5100561;28;20206;-71
2023/08/26 06:09:46;;;;;;;2.80;1.80;;;;;;;;;;5099583;28;20253;-65
2023/08/26 06:12:15;;;;;;;2.80;1.60;;;;;;;;;;5099026;28;20211;-62
2023/08/26 06:14:43;;;;;;;1.73;1.47;;;;;;;;;;5100644;28;20206;-60
2023/08/26 06:17:11;;;;;;;3.70;2.30;;;;;;;;;;5099991;28;20210;-61
2023/08/26 06:19:40;;;;;;;2.40;1.23;;;;;;;;;;5100000;28;20211;-62
2023/08/26 06:22:08;;;;;;;2.37;1.40;;;;;;;;;;5100327;28;20210;-66
2023/08/26 06:24:36;;;;;;;5.70;1.30;;;;;;;;;;5100064;28;20269;-67
2023/08/26 06:27:06;;;;;;;3.03;1.63;;;;;;;;;;5099325;28;20599;-69
2023/08/26 06:29:34;;;;;;;2.00;1.70;;;;;;;;;;5090403;28;20260;-67
2023/08/26 06:32:02;;;;;;;1.80;1.60;;;;;;;;;;5098783;28;20226;-70
2023/08/26 06:34:30;;;;;;;4.20;1.70;;;;;;;;;;5099205;28;20207;-61
2023/08/26 06:36:59;;;;;;;3.77;1.20;;;;;;;;;;5098581;28;20202;-62
2023/08/26 06:39:27;;;;;;;5.03;1.70;;;;;;;;;;5097538;28;20269;-62
2023/08/26 06:41:55;;;;;;;3.73;1.40;;;;;;;;;;5097631;28;20221;-61
2023/08/26 06:44:23;;;;;;;5.20;1.53;;;;;;;;;;5099135;28;20202;-62
2023/08/26 06:46:51;;;;;;;3.93;1.90;;;;;;;;;;5099149;28;20216;-63
2023/08/26 06:49:19;;;;;;;2.03;1.20;;;;;;;;;;5094440;28;20208;-62
2023/08/26 06:51:47;;;;;;;5.33;1.60;;;;;;;;;;5099390;28;20690;-60
2023/08/26 06:54:17;;;;;;;3.43;1.30;;;;;;;;;;5096476;28;20683;-62
2023/08/26 06:56:45;;;;;;;2.90;1.33;;;;;;;;;;5099710;28;20206;-61
2023/08/26 06:59:13;;;;;;;2.70;1.30;;;;;;;;;;5094115;28;20205;-62
2023/08/26 07:01:41;;;;;;;2.73;1.63;;;;;;;;;;5089925;28;20231;-63
2023/08/26 07:04:09;;;;;;;4.53;1.20;;;;;;;;;;5096339;28;20202;-62
2023/08/26 07:06:37;;;;;;;2.33;1.40;;;;;;;;;;5098934;28;20620;-62
2023/08/26 07:09:06;;;;;;;1.97;1.43;;;;;;;;;;5097055;28;20206;-63
2023/08/26 07:11:35;;;;;;;2.43;1.37;;;;;;;;;;5093493;28;20710;-64
2023/08/26 07:14:03;;;;;;;3.50;1.57;;;;;;;;;;5096825;28;20211;-65
2023/08/26 07:16:31;;;;;;;5.60;1.80;;;;;;;;;;5097911;28;20197;-64
2023/08/26 07:18:59;;;;;;;4.87;1.80;;;;;;;;;;5098401;28;20205;-64
2023/08/26 07:21:27;;;;;;;3.07;1.33;;;;;;;;;;5097603;28;20695;-64
2023/08/26 07:23:55;;;;;;;2.77;1.60;;;;;;;;;;5093274;28;20612;-64
2023/08/26 07:26:23;;;;;;;2.17;1.30;;;;;;;;;;5094762;28;20200;-64
2023/08/26 07:28:53;;;;;;;3.93;2.27;;;;;;;;;;5095243;28;20244;-63
2023/08/26 07:31:21;;;;;;;4.13;1.60;;;;;;;;;;5089519;28;20281;-62
2023/08/26 07:33:49;;;;;;;2.20;1.63;;;;;;;;;;5098080;28;20213;-63
2023/08/26 07:36:17;;;;;;;2.60;1.53;;;;;;;;;;5093365;28;20531;-63
2023/08/26 07:38:45;;;;;;;3.00;1.50;;;;;;;;;;5097316;28;20633;-64
2023/08/26 07:41:13;;;;;;;3.47;1.60;;;;;;;;;;5096638;28;20221;-63
2023/08/26 07:43:41;;;;;;;2.40;2.03;;;;;;;;;;5093968;28;20224;-63
2023/08/26 07:46:11;;;;;;;4.00;1.70;;;;;;;;;;5097772;28;20210;-62
2023/08/26 07:48:42;;;;;;;7.97;1.50;;;;;;;;;;5098148;28;20256;-64
2023/08/26 07:51:10;;;;;;;3.97;1.60;;;;;;;;;;5098643;28;20220;-63
2023/08/26 07:53:38;;;;;;;3.00;1.60;;;;;;;;;;5096001;28;20223;-63
2023/08/26 07:56:06;;;;;;;4.07;1.30;;;;;;;;;;5098653;28;20208;-62
2023/08/26 07:58:34;;;;;;;2.83;1.53;;;;;;;;;;5098636;28;20207;-65
2023/08/26 08:01:02;;;;;;;4.10;1.33;;;;;;;;;;5097667;28;20245;-63
2023/08/26 08:03:31;;;;;;;3.63;1.77;;;;;;;;;;5092896;28;20199;-62
2023/08/26 08:05:59;;;;;;;3.70;1.67;;;;;;;;;;5096915;28;20654;-62
2023/08/26 08:08:27;;;;;;;2.07;1.53;;;;;;;;;;5107750;28;20227;-63
2023/08/26 08:10:55;;;;;;;3.70;2.03;;;;;;;;;;5097868;28;20218;-68
2023/08/26 08:13:23;;;;;;;3.53;1.90;;;;;;;;;;5095625;28;20229;-67
2023/08/26 08:15:51;;;;;;;5.03;1.87;;;;;;;;;;5098331;28;20206;-69
2023/08/26 08:18:20;;;;;;;1.93;1.37;;;;;;;;;;5098133;28;20208;-69
2023/08/26 08:20:49;;;;;;;3.73;1.37;;;;;;;;;;5098000;28;20231;-69
2023/08/26 08:23:17;;;;;;;1.47;1.37;;;;;;;;;;5097387;28;20193;-67
2023/08/26 08:25:45;;;;;;;5.13;1.93;;;;;;;;;;5098030;28;20326;-70
2023/08/26 08:28:13;;;;;;;4.60;1.43;;;;;;;;;;5095591;28;20229;-69
2023/08/26 08:30:41;;;;;;;9.10;3.20;;;;;;;;;;5096747;28;20278;-71
2023/08/26 08:33:09;;;;;;;2.33;1.60;;;;;;;;;;5096904;28;20208;-72
2023/08/26 08:35:37;;;;;;;2.50;1.30;;;;;;;;;;5097982;28;20222;-71
2023/08/26 08:38:07;;;;;;;4.27;1.60;;;;;;;;;;5096722;28;20204;-69
2023/08/26 08:40:38;;;;;;;4.27;1.63;;;;;;;;;;5096828;28;20312;-70
2023/08/26 08:43:06;;;;;;;4.50;1.73;;;;;;;;;;5095040;28;20218;-70
2023/08/26 08:45:35;;;;;;;1.60;1.33;;;;;;;;;;5096412;28;20221;-68
2023/08/26 08:48:03;;;;;;;2.07;1.50;;;;;;;;;;5097050;28;20208;-67
2023/08/26 08:50:31;;;;;;;2.70;1.37;;;;;;;;;;5095652;28;20259;-67
2023/08/26 08:52:59;;;;;;;1.37;1.10;;;;;;;;;;5094766;28;20213;-68
2023/08/26 08:55:29;;;;;;;2.30;1.17;;;;;;;;;;5090548;28;20205;-66
2023/08/26 08:57:57;;;;;;;6.17;1.30;;;;;;;;;;5096799;28;20208;-66
2023/08/26 09:00:27;;;;;;;3.67;1.50;;;;;;;;;;5096140;28;20253;-68
2023/08/26 09:02:56;;;;;;;2.77;1.20;;;;;;;;;;5093996;28;20287;-68
2023/08/26 09:05:25;;;;;;;2.50;1.57;;;;;;;;;;5095967;28;20197;-67
2023/08/26 09:07:53;;;;;;;4.20;1.97;;;;;;;;;;5099886;28;20205;-65
2023/08/26 09:10:22;;;;;;;2.03;1.40;;;;;;;;;;5100218;28;20223;-69
2023/08/26 09:12:51;;;;;;;3.10;1.23;;;;;;;;;;5099710;28;20204;-66
2023/08/26 09:15:21;;;;;;;4.20;1.60;;;;;;;;;;5102562;28;20302;-64
2023/08/26 09:17:51;;;;;;;1.80;1.43;;;;;;;;;;5099717;28;20205;-67
2023/08/26 09:20:19;;;;;;;3.53;1.70;;;;;;;;;;5099230;28;20300;-69
2023/08/26 09:22:47;;;;;;;2.30;1.50;;;;;;;;;;5101366;28;20312;-67
2023/08/26 09:25:15;;;;;;;1.50;1.40;;;;;;;;;;5100404;28;20749;-69
2023/08/26 09:27:43;;;;;;;1.87;1.40;;;;;;;;;;5099326;28;20210;-66
2023/08/26 09:30:18;;;;;;;1.77;1.43;;;;;;;;;;5087283;28;20230;-68
2023/08/26 09:32:49;;;;;;;3.00;1.63;;;;;;;;;;5094434;28;20280;-68
2023/08/26 09:35:18;;;;;;;5.30;1.60;;;;;;;;;;5100982;28;20229;-66
2023/08/26 09:38:08;;;;;;;3.67;1.80;;;;;;;;;;5100007;28;20203;-66
2023/08/26 09:40:38;;;;;;;3.13;1.57;;;;;;;;;;5094584;28;20226;-66
2023/08/26 09:43:06;;;;;;;3.83;1.30;;;;;;;;;;5100262;28;20221;-67
2023/08/26 09:45:38;;;;;;;2.20;1.27;;;;;;;;;;5098015;28;20202;-69
2023/08/26 09:48:07;;;;;;;2.37;1.07;;;;;;;;;;5099545;28;20281;-66
2023/08/26 09:50:35;;;;;;;2.73;1.43;;;;;;;;;;5096552;28;20767;-68
2023/08/26 09:53:03;;;;;;;3.43;1.17;;;;;;;;;;5092702;28;20197;-66
2023/08/26 09:55:31;;;;;;;1.83;1.03;;;;;;;;;;5101418;28;20206;-67
2023/08/26 09:57:59;;;;;;;2.37;1.30;;;;;;;;;;5100286;28;20232;-66
2023/08/26 10:00:28;;;;;;;3.00;1.30;;;;;;;;;;5100485;28;20240;-66
2023/08/26 10:03:00;;;;;;;2.83;1.10;;;;;;;;;;5100310;28;20241;-69
2023/08/26 10:05:29;;;;;;;3.37;1.53;;;;;;;;;;5100948;28;20536;-68
2023/08/26 10:07:58;;;;;;;2.40;1.30;;;;;;;;;;5100482;28;20312;-66
2023/08/26 10:10:30;;;;;;;2.47;1.27;;;;;;;;;;5087320;28;20222;-66
2023/08/26 10:13:01;;;;;;;2.40;1.30;;;;;;;;;;5094513;28;20258;-66
2023/08/26 10:15:32;;;;;;;3.30;1.60;;;;;;;;;;5100069;28;20664;-70
2023/08/26 10:18:04;;;;;;;2.30;1.30;;;;;;;;;;5100128;28;20205;-70
2023/08/26 10:20:32;;;;;;;4.10;1.30;;;;;;;;;;5100401;28;20227;-72
2023/08/26 10:23:00;;;;;;;2.87;1.20;;;;;;;;;;5100393;28;20231;-69
2023/08/26 10:25:29;;;;;;;1.77;1.03;;;;;;;;;;5099422;28;20568;-72
2023/08/26 10:27:57;;;;;;;2.33;1.30;;;;;;;;;;5100381;28;20202;-71
2023/08/26 10:30:26;;;;;;;1.40;1.07;;;;;;;;;;5097910;28;20224;-73
2023/08/26 10:32:59;;;;;;;2.03;1.30;;;;;;;;;;5098812;28;20204;-72
2023/08/26 10:35:28;;;;;;;1.10;1.00;;;;;;;;;;5100202;28;20217;-72
2023/08/26 10:38:08;;;;;;;2.17;1.20;;;;;;;;;;5099107;28;20206;-71
2023/08/26 10:40:36;;;;;;;11.27;8.23;;;;;;;;;;5098797;28;20223;-72
2023/08/26 10:43:05;;;;;;;1.30;1.20;;;;;;;;;;5094100;28;20229;-71
2023/08/26 10:45:33;;;;;;;2.63;2.00;;;;;;;;;;5099798;28;20206;-70
2023/08/26 10:48:01;;;;;;;2.13;1.63;;;;;;;;;;5098316;28;20205;-72
2023/08/26 10:50:30;;;;;;;4.93;2.70;;;;;;;;;;5099809;28;20229;-70
2023/08/26 10:52:59;;;;;;;2.60;1.40;;;;;;;;;;5096851;28;20239;-72
2023/08/26 10:55:27;;;;;;;4.40;1.97;;;;;;;;;;5098758;28;20220;-70
2023/08/26 10:58:03;;;;;;;3.23;1.60;;;;;;;;;;5098880;28;20220;-71
2023/08/26 11:00:31;;;;;;;1.33;1.10;;;;;;;;;;5099321;28;20233;-69
2023/08/26 11:03:00;;;;;;;3.30;1.40;;;;;;;;;;5097508;28;20226;-70
2023/08/26 11:05:30;;;;;;;3.83;2.07;;;;;;;;;;5099547;28;20210;-70
2023/08/26 11:07:58;;;;;;;2.20;1.10;;;;;;;;;;5098523;28;20205;-70
2023/08/26 11:10:27;;;;;;;4.33;1.47;;;;;;;;;;5097975;28;20294;-68
2023/08/26 11:12:55;;;;;;;2.33;1.43;;;;;;;;;;5098557;28;20194;-69
2023/08/26 11:15:23;;;;;;;3.53;1.73;;;;;;;;;;5099370;28;20207;-70
2023/08/26 11:17:51;;;;;;;2.17;1.67;;;;;;;;;;5097700;28;20247;-70
2023/08/26 11:20:19;;;;;;;2.67;1.50;;;;;;;;;;5098313;28;20306;-68
2023/08/26 11:22:50;;;;;;;4.63;1.63;;;;;;;;;;5097924;28;20583;-68
2023/08/26 11:25:18;;;;;;;4.93;1.60;;;;;;;;;;5098182;28;20209;-66
2023/08/26 11:27:46;;;;;;;2.97;1.27;;;;;;;;;;5097271;28;20261;-65
2023/08/26 11:30:15;;;;;;;1.73;1.00;;;;;;;;;;5098330;28;20275;-65
2023/08/26 11:32:42;;;;;;;2.43;1.20;;;;;;;;;;5098123;28;20192;-65
2023/08/26 11:35:11;;;;;;;5.67;1.40;;;;;;;;;;5098170;28;20573;-64
2023/08/26 11:37:41;;;;;;;2.40;1.40;;;;;;;;;;5098164;28;20209;-64
2023/08/26 11:40:11;;;;;;;2.00;1.30;;;;;;;;;;5097749;28;20222;-65
2023/08/26 11:42:40;;;;;;;2.27;1.23;;;;;;;;;;5095877;28;20244;-65
2023/08/26 11:45:09;;;;;;;1.33;1.20;;;;;;;;;;5098831;28;20209;-64
2023/08/26 11:47:37;;;;;;;3.93;1.30;;;;;;;;;;5097104;28;20265;-64
2023/08/26 11:50:06;;;;;;;2.37;1.93;;;;;;;;;;5096385;28;20298;-65
2023/08/26 11:52:34;;;;;;;4.43;1.60;;;;;;;;;;5094935;28;20212;-65
2023/08/26 11:55:03;;;;;;;1.60;1.43;;;;;;;;;;5098608;28;20215;-65
2023/08/26 11:57:35;;;;;;;2.10;1.40;;;;;;;;;;5097139;28;20703;-66
2023/08/26 12:00:09;;;;;;;3.43;1.43;;;;;;;;;;5094902;28;20226;-65
2023/08/26 12:02:37;;;;;;;2.20;1.20;;;;;;;;;;5098184;28;20220;-65
2023/08/26 12:05:05;;;;;;;2.93;1.40;;;;;;;;;;5098215;28;20565;-65
2023/08/26 12:07:34;;;;;;;1.97;1.20;;;;;;;;;;5097771;28;20260;-63
2023/08/26 12:10:11;;;;;;;2.83;1.43;;;;;;;;;;5093394;28;20643;-65
2023/08/26 12:12:41;;;;;;;1.97;1.20;;;;;;;;;;5098182;28;20239;-64
2023/08/26 12:15:11;;;;;;;1.50;1.30;;;;;;;;;;5098127;28;20209;-64
2023/08/26 12:17:43;;;;;;;3.13;1.43;;;;;;;;;;5108120;28;20204;-65
2023/08/26 12:20:24;;;;;;;2.60;1.23;;;;;;;;;;5098185;28;20226;-65
2023/08/26 12:22:52;;;;;;;2.93;1.20;;;;;;;;;;5097822;28;20211;-65
2023/08/26 12:25:24;;;;;;;2.57;1.33;;;;;;;;;;5097075;28;20257;-65
2023/08/26 12:27:53;;;;;;;5.03;0.97;;;;;;;;;;5098090;28;20257;-64
2023/08/26 12:30:22;;;;;;;2.47;1.07;;;;;;;;;;5097288;28;20589;-65
2023/08/26 12:32:50;;;;;;;5.57;1.57;;;;;;;;;;5096820;28;20206;-64
2023/08/26 12:35:18;;;;;;;2.63;1.40;;;;;;;;;;5096747;28;20231;-64
2023/08/26 12:37:46;;;;;;;2.37;1.47;;;;;;;;;;5097120;28;20220;-64
2023/08/26 12:40:14;;;;;;;3.70;1.30;;;;;;;;;;5091423;28;20678;-64
2023/08/26 12:42:42;;;;;;;2.50;1.30;;;;;;;;;;5095100;28;20204;-64
2023/08/26 12:45:12;;;;;;;3.80;1.77;;;;;;;;;;5092791;28;21140;-65
2023/08/26 12:47:40;;;;;;;1.83;1.63;;;;;;;;;;5096291;28;20641;-65
2023/08/26 12:50:10;;;;;;;3.90;1.77;;;;;;;;;;5095849;28;20643;-64
2023/08/26 12:52:39;;;;;;;1.67;1.50;;;;;;;;;;5095146;28;20201;-65
2023/08/26 12:55:07;;;;;;;5.13;1.70;;;;;;;;;;5096762;28;20202;-64
2023/08/26 12:57:35;;;;;;;5.23;1.50;;;;;;;;;;5096355;28;20537;-65
2023/08/26 13:00:04;;;;;;;2.20;1.60;;;;;;;;;;5096987;28;20228;-65
2023/08/26 13:02:36;;;;;;;2.37;1.30;;;;;;;;;;5083805;28;20202;-63
2023/08/26 13:05:05;;;;;;;2.60;1.60;;;;;;;;;;5097504;28;20227;-65
2023/08/26 13:07:33;;;;;;;6.27;1.80;;;;;;;;;;5096858;28;20204;-65
2023/08/26 13:10:01;;;;;;;2.63;1.70;;;;;;;;;;5094824;28;20224;-64
2023/08/26 13:12:32;;;;;;;4.03;1.83;;;;;;;;;;5095110;28;20252;-65
2023/08/26 13:14:59;;;;;;;2.27;1.40;;;;;;;;;;5097715;28;20201;-63
2023/08/26 13:17:27;;;;;;;5.30;1.97;;;;;;;;;;5096545;28;20203;-65
2023/08/26 13:19:58;;;;;;;2.80;1.80;;;;;;;;;;5097303;28;20232;-65
2023/08/26 13:22:27;;;;;;;2.87;1.70;;;;;;;;;;5095384;28;20290;-65
2023/08/26 13:24:57;;;;;;;19.87;12.53;;;;;;;;;;5092142;28;20701;-65
2023/08/26 13:27:25;;;;;;;3.73;2.00;;;;;;;;;;5093845;28;20322;-65
2023/08/26 13:29:53;;;;;;;3.33;2.07;;;;;;;;;;5086400;28;20248;-65
2023/08/26 13:32:21;;;;;;;4.50;1.63;;;;;;;;;;5096243;28;20263;-65
2023/08/26 13:34:49;;;;;;;2.63;1.77;;;;;;;;;;5096504;28;20212;-65
2023/08/26 13:37:18;;;;;;;5.77;1.50;;;;;;;;;;5096725;28;20205;-66
2023/08/26 13:39:46;;;;;;;5.20;1.97;;;;;;;;;;5094980;28;20231;-65
2023/08/26 13:42:14;;;;;;;4.23;1.67;;;;;;;;;;5091860;28;20209;-65
2023/08/26 13:44:42;;;;;;;2.73;1.40;;;;;;;;;;5096929;28;20228;-65
2023/08/26 13:47:10;;;;;;;3.57;2.17;;;;;;;;;;5095728;28;20207;-65
2023/08/26 13:49:38;;;;;;;2.37;1.60;;;;;;;;;;5094545;28;20209;-65
2023/08/26 13:52:06;;;;;;;3.83;1.67;;;;;;;;;;5098088;28;20208;-65
2023/08/26 13:54:36;;;;;;;3.53;1.80;;;;;;;;;;5099621;28;20197;-65
2023/08/26 13:57:04;;;;;;;4.30;1.90;;;;;;;;;;5100823;28;20207;-65
2023/08/26 13:59:33;;;;;;;4.00;1.83;;;;;;;;;;5098380;28;20292;-65
2023/08/26 14:02:01;;;;;;;4.27;1.70;;;;;;;;;;5100213;28;20761;-65
2023/08/26 14:04:29;;;;;;;4.80;2.33;;;;;;;;;;5100577;28;20276;-65
2023/08/26 14:06:57;;;;;;;4.43;2.70;;;;;;;;;;5099824;28;20205;-65
2023/08/26 14:09:26;;;;;;;6.93;2.10;;;;;;;;;;5100403;28;20229;-65
2023/08/26 14:11:59;;;;;;;6.93;2.03;;;;;;;;;;5095984;28;20221;-65
2023/08/26 14:14:27;;;;;;;7.50;2.67;;;;;;;;;;5100804;28;20200;-65
2023/08/26 14:16:55;;;;;;;2.47;2.17;;;;;;;;;;5100616;28;20213;-65
2023/08/26 14:19:23;;;;;;;5.43;2.40;;;;;;;;;;5100258;28;20248;-65
2023/08/26 14:21:51;;;;;;;7.30;2.70;;;;;;;;;;5100033;28;20229;-65
2023/08/26 14:24:19;;;;;;;5.60;2.70;;;;;;;;;;5099470;28;20270;-65
2023/08/26 14:26:47;;;;;;;6.47;3.27;;;;;;;;;;5099427;28;20212;-65
2023/08/26 14:29:16;;;;;;;4.80;2.50;;;;;;;;;;5099430;28;20267;-66
2023/08/26 14:31:44;;;;;;;3.60;2.47;;;;;;;;;;5099248;28;20246;-65
2023/08/26 14:34:12;;;;;;;4.40;2.83;;;;;;;;;;5098751;28;20211;-65
2023/08/26 14:36:40;;;;;;;3.27;2.80;;;;;;;;;;5099058;28;20677;-65
2023/08/26 14:39:09;;;;;;;2.83;2.37;;;;;;;;;;5098921;28;20264;-65
2023/08/26 14:41:37;;;;;;;4.20;2.80;;;;;;;;;;5093633;28;20250;-65
2023/08/26 14:44:05;;;;;;;4.87;2.23;;;;;;;;;;5098727;28;20203;-65
2023/08/26 14:46:35;;;;;;;3.67;2.37;;;;;;;;;;5097478;28;20669;-65
2023/08/26 14:49:03;;;;;;;4.33;2.53;;;;;;;;;;5097313;28;20284;-65
2023/08/26 14:51:31;;;;;;;5.70;2.43;;;;;;;;;;5099081;28;20214;-65